Time;durP1;ratioP1;P1;durP2;ratioP2;P2;SDS_P1;SDS_P2;PMS_P1;PMS_P2;Temp;Humidity;BMP_temperature;BMP_pressure;BME280_temperature;BME280_humidity;BME280_pressure;Samples;Min_cycle;Max_cycle;Signal;HPM_P1;HPM_P2
2022/09/15 00:00:24;;;;;;;;;;;29.20;90.70;;;;;;5065334;28;19909;-60
2022/09/15 00:02:50;;;;;;;;;;;29.20;90.90;;;;;;5065938;28;19959;-61
2022/09/15 00:05:17;;;;;;;;;;;29.20;90.90;;;;;;5064972;28;19908;-59
2022/09/15 00:07:43;;;;;;;;;;;29.10;90.90;;;;;;5065793;28;19913;-59
2022/09/15 00:10:10;;;;;;;;;;;29.10;91.00;;;;;;5065188;28;19915;-59
2022/09/15 00:12:36;;;;;;;;;;;29.10;91.00;;;;;;5065678;28;19968;-61
2022/09/15 00:15:03;;;;;;;;;;;29.10;91.00;;;;;;5065248;28;19971;-60
2022/09/15 00:17:30;;;;;;;;;;;29.00;91.00;;;;;;5065435;28;19927;-60
2022/09/15 00:19:57;;;;;;;;;;;29.00;91.20;;;;;;5064551;28;19905;-61
2022/09/15 00:22:24;;;;;;;;;;;29.00;91.20;;;;;;5065298;28;20003;-60
2022/09/15 00:24:50;;;;;;;;;;;28.90;91.10;;;;;;5064731;28;19940;-60
2022/09/15 00:27:16;;;;;;;;;;;28.90;91.00;;;;;;5065225;28;19913;-60
2022/09/15 00:29:42;;;;;;;;;;;28.90;91.00;;;;;;5064874;28;20019;-59
2022/09/15 00:32:09;;;;;;;;;;;28.90;90.80;;;;;;5065445;28;19920;-61
2022/09/15 00:34:35;;;;;;;;;;;28.90;90.80;;;;;;5064391;28;20309;-61
2022/09/15 00:37:01;;;;;;;;;;;28.80;90.70;;;;;;5064836;28;20285;-60
2022/09/15 00:39:27;;;;;;;;;;;28.80;90.80;;;;;;5064765;28;19909;-60
2022/09/15 00:41:53;;;;;;;;;;;28.80;90.80;;;;;;5065029;28;20132;-60
2022/09/15 00:44:22;;;;;;;;;;;28.80;90.80;;;;;;5064366;28;19951;-61
2022/09/15 00:46:50;;;;;;;;;;;28.80;90.80;;;;;;5064571;28;20189;-59
2022/09/15 00:49:16;;;;;;;;;;;28.70;90.80;;;;;;5063649;28;19905;-60
2022/09/15 00:51:50;;;;;;;;;;;28.70;90.80;;;;;;5064437;28;19919;-58
2022/09/15 00:54:36;;;;;;;;;;;28.70;90.70;;;;;;5064626;28;19944;-59
2022/09/15 00:57:05;;;;;;;;;;;28.70;90.50;;;;;;5033442;28;19913;-59
2022/09/15 00:59:33;;;;;;;;;;;28.60;90.50;;;;;;5064183;28;19936;-59
2022/09/15 01:02:12;;;;;;;;;;;28.60;90.50;;;;;;5064771;28;19915;-59
2022/09/15 01:04:38;;;;;;;;;;;28.60;90.30;;;;;;5063858;28;19996;-60
2022/09/15 01:07:05;;;;;;;;;;;28.50;90.20;;;;;;5064520;28;19945;-60
2022/09/15 01:09:34;;;;;;;;;;;28.50;90.00;;;;;;5064180;28;19979;-59
2022/09/15 01:12:01;;;;;;;;;;;28.60;90.00;;;;;;5064237;28;19913;-60
2022/09/15 01:14:27;;;;;;;;;;;28.50;90.00;;;;;;5074771;28;19944;-59
2022/09/15 01:16:56;;;;;;;;;;;28.50;90.10;;;;;;5084504;28;19912;-60
2022/09/15 01:19:36;;;;;;;;;;;28.50;90.10;;;;;;5079381;28;20104;-59
2022/09/15 01:22:14;;;;;;;;;;;28.50;90.10;;;;;;5084598;28;20171;-60
2022/09/15 01:24:48;;;;;;;;;;;28.40;89.80;;;;;;5097853;28;19962;-60
2022/09/15 01:27:21;;;;;;;;;;;28.40;89.40;;;;;;5104620;28;19916;-60
2022/09/15 01:29:50;;;;;;;;;;;28.40;89.50;;;;;;5084090;28;19985;-59
2022/09/15 01:35:13;;;;;;;;;;;28.40;90.00;;;;;;5081125;28;19914;-60
2022/09/15 01:37:44;;;;;;;;;;;28.40;90.10;;;;;;5083621;28;19920;-60
2022/09/15 01:40:11;;;;;;;;;;;28.40;89.90;;;;;;5083874;28;19909;-60
2022/09/15 01:42:39;;;;;;;;;;;28.30;89.90;;;;;;5084322;28;19915;-58
2022/09/15 01:45:10;;;;;;;;;;;28.30;89.60;;;;;;5101507;28;19912;-58
2022/09/15 01:47:39;;;;;;;;;;;28.30;89.70;;;;;;5104590;28;19920;-58
2022/09/15 01:50:08;;;;;;;;;;;28.30;89.20;;;;;;5103522;28;19915;-59
2022/09/15 01:52:35;;;;;;;;;;;28.20;89.50;;;;;;5104478;28;19908;-58
2022/09/15 01:55:04;;;;;;;;;;;28.20;89.40;;;;;;5103988;28;19954;-62
2022/09/15 01:57:32;;;;;;;;;;;28.30;89.40;;;;;;5104551;28;19979;-60
2022/09/15 01:59:59;;;;;;;;;;;28.30;89.00;;;;;;5104056;28;19908;-58
2022/09/15 02:02:32;;;;;;;;;;;28.40;88.60;;;;;;5107804;28;19912;-60
2022/09/15 02:05:17;;;;;;;;;;;28.50;88.50;;;;;;5107747;28;19912;-58
2022/09/15 02:07:46;;;;;;;;;;;28.50;88.50;;;;;;5108635;28;19912;-61
2022/09/15 02:10:28;;;;;;;;;;;28.50;88.30;;;;;;5108192;28;19908;-61
2022/09/15 02:13:15;;;;;;;;;;;28.60;88.40;;;;;;5108255;28;19994;-62
2022/09/15 02:15:47;;;;;;;;;;;28.50;88.00;;;;;;5107609;28;20192;-61
2022/09/15 02:18:16;;;;;;;;;;;28.60;87.70;;;;;;5107599;28;19922;-58
2022/09/15 02:20:52;;;;;;;12.95;3.60;;;28.60;87.70;;;;;;5107492;28;20037;-60
2022/09/15 02:23:30;;;;;;;14.27;3.72;;;28.60;87.80;;;;;;5107224;28;20055;-59
2022/09/15 02:26:04;;;;;;;12.05;3.70;;;28.60;88.10;;;;;;5107322;28;20040;-60
2022/09/15 02:28:37;;;;;;;13.18;3.88;;;28.70;88.50;;;;;;5107304;28;20020;-59
2022/09/15 02:31:08;;;;;;;11.68;4.30;;;28.70;88.70;;;;;;5107093;28;20330;-62
2022/09/15 02:33:59;;;;;;;15.57;4.60;;;28.70;88.90;;;;;;5106771;28;20074;-60
2022/09/15 02:36:27;;;;;;;13.95;3.75;;;28.70;89.00;;;;;;5107389;28;20266;-60
2022/09/15 02:39:01;;;;;;;15.85;3.90;;;28.70;89.10;;;;;;5107011;28;20024;-60
2022/09/15 02:41:27;;;;;;;11.68;3.10;;;28.70;89.30;;;;;;5106813;28;20043;-62
2022/09/15 02:43:54;;;;;;;21.23;3.95;;;28.60;89.20;;;;;;5106918;28;20023;-60
2022/09/15 02:46:22;;;;;;;8.35;3.05;;;28.70;89.30;;;;;;5106278;28;20058;-61
2022/09/15 02:48:49;;;;;;;9.82;3.20;;;28.60;89.30;;;;;;5106373;28;20069;-59
2022/09/15 02:51:17;;;;;;;16.13;3.97;;;28.60;89.20;;;;;;5107132;28;20016;-58
2022/09/15 02:53:45;;;;;;;8.95;2.70;;;28.60;89.00;;;;;;5106901;28;20020;-57
2022/09/15 02:56:12;;;;;;;15.00;3.28;;;28.60;88.90;;;;;;5106358;28;20246;-61
2022/09/15 02:58:39;;;;;;;15.07;3.50;;;28.60;89.10;;;;;;5106821;28;20015;-59
2022/09/15 03:01:07;;;;;;;17.50;3.22;;;28.60;89.00;;;;;;5106862;28;20020;-62
2022/09/15 03:03:34;;;;;;;13.45;3.35;;;28.60;89.00;;;;;;5106171;28;20015;-63
2022/09/15 03:06:16;;;;;;;10.02;3.17;;;28.60;89.00;;;;;;5106498;28;20043;-62
2022/09/15 03:08:59;;;;;;;9.88;3.08;;;28.60;89.00;;;;;;5106365;28;20083;-62
2022/09/15 03:11:27;;;;;;;10.02;2.50;;;28.60;88.90;;;;;;5106474;28;20078;-62
2022/09/15 03:13:57;;;;;;;9.98;3.08;;;28.60;88.90;;;;;;5105769;28;20020;-64
2022/09/15 03:16:24;;;;;;;14.20;3.08;;;28.60;88.90;;;;;;5106376;28;20043;-60
2022/09/15 03:18:53;;;;;;;9.77;3.25;;;28.50;88.90;;;;;;5105958;28;20036;-60
2022/09/15 03:21:19;;;;;;;8.40;2.53;;;28.50;89.10;;;;;;5106489;28;20023;-62
2022/09/15 03:23:46;;;;;;;11.27;2.92;;;28.60;89.00;;;;;;5085180;28;20059;-60
2022/09/15 03:26:13;;;;;;;13.50;2.83;;;28.50;88.90;;;;;;5069311;28;20305;-59
2022/09/15 03:28:40;;;;;;;13.07;3.05;;;28.50;88.80;;;;;;5065761;28;20029;-62
2022/09/15 03:31:08;;;;;;;9.73;3.00;;;28.50;88.90;;;;;;5065708;28;20028;-62
2022/09/15 03:33:35;;;;;;;12.75;3.17;;;28.50;88.70;;;;;;5065348;28;20013;-60
2022/09/15 03:36:02;;;;;;;7.68;2.67;;;28.50;88.90;;;;;;5065733;28;20040;-60
2022/09/15 03:38:29;;;;;;;14.70;3.45;;;28.50;88.80;;;;;;5065581;28;20028;-63
2022/09/15 03:41:05;;;;;;;12.50;3.70;;;28.50;88.80;;;;;;5057506;28;20036;-62
2022/09/15 03:43:31;;;;;;;;;;;28.50;88.70;;;;;;5049073;28;19916;-62
2022/09/15 03:45:58;;;;;;;;;;;28.50;88.80;;;;;;5065852;28;19908;-58
2022/09/15 03:48:24;;;;;;;;;;;28.40;88.80;;;;;;5065682;28;19947;-59
2022/09/15 03:50:51;;;;;;;;;;;28.40;89.00;;;;;;5065635;28;20255;-57
2022/09/15 03:53:17;;;;;;;;;;;28.40;89.00;;;;;;5065952;28;19967;-60
2022/09/15 03:55:44;;;;;;;;;;;28.40;89.20;;;;;;5065699;28;19905;-56
2022/09/15 03:58:10;;;;;;;;;;;28.40;89.20;;;;;;5065597;28;20169;-61
2022/09/15 04:00:36;;;;;;;;;;;28.40;89.20;;;;;;5065542;28;19909;-64
2022/09/15 04:03:03;;;;;;;;;;;28.40;89.20;;;;;;5065340;28;19905;-59
2022/09/15 04:05:29;;;;;;;;;;;28.40;89.30;;;;;;5065553;28;19936;-59
2022/09/15 04:07:55;;;;;;;;;;;28.40;89.30;;;;;;5065359;28;20136;-61
2022/09/15 04:10:23;;;;;;;;;;;28.40;89.40;;;;;;5065311;28;19942;-56
2022/09/15 04:12:53;;;;;;;;;;;28.40;89.30;;;;;;5065798;28;20132;-59
2022/09/15 04:15:21;;;;;;;;;;;28.40;89.50;;;;;;5065537;28;19901;-58
2022/09/15 04:17:47;;;;;;;;;;;28.40;89.50;;;;;;5065435;28;19915;-59
2022/09/15 04:20:16;;;;;;;;;;;28.40;89.50;;;;;;5065277;28;19931;-62
2022/09/15 04:22:43;;;;;;;;;;;28.40;89.40;;;;;;5065693;28;20142;-59
2022/09/15 04:25:09;;;;;;;;;;;28.40;89.90;;;;;;5063935;28;19940;-61
2022/09/15 04:27:37;;;;;;;;;;;28.40;89.50;;;;;;5065485;28;19950;-62
2022/09/15 04:30:04;;;;;;;;;;;28.40;89.50;;;;;;5064864;28;19908;-59
2022/09/15 04:32:30;;;;;;;;;;;28.30;89.70;;;;;;5065107;28;19908;-59
2022/09/15 04:34:56;;;;;;;;;;;28.30;89.70;;;;;;5065120;28;19901;-58
2022/09/15 04:37:22;;;;;;;;;;;28.30;90.00;;;;;;5064997;28;19908;-61
2022/09/15 04:39:49;;;;;;;;;;;28.30;90.10;;;;;;5064074;28;19910;-61
2022/09/15 04:42:15;;;;;;;;;;;28.30;90.10;;;;;;5064240;28;19908;-61
2022/09/15 04:44:41;;;;;;;;;;;28.30;90.20;;;;;;5064672;28;20192;-61
2022/09/15 04:47:07;;;;;;;;;;;28.30;90.60;;;;;;5064914;28;20199;-61
2022/09/15 04:49:33;;;;;;;;;;;28.30;90.80;;;;;;5064793;28;19905;-61
2022/09/15 04:52:00;;;;;;;;;;;28.30;91.10;;;;;;5064436;28;19959;-60
2022/09/15 04:54:26;;;;;;;;;;;28.20;91.10;;;;;;5064834;28;20219;-62
2022/09/15 04:56:52;;;;;;;;;;;28.20;91.30;;;;;;5064951;28;19904;-61
2022/09/15 04:59:19;;;;;;;;;;;28.20;91.30;;;;;;5064527;28;20166;-60
2022/09/15 05:01:46;;;;;;;;;;;28.20;91.40;;;;;;5064772;28;20185;-61
2022/09/15 05:04:12;;;;;;;;;;;28.20;91.40;;;;;;5064574;28;19908;-61
2022/09/15 05:06:38;;;;;;;;;;;28.10;91.30;;;;;;5064649;28;19948;-64
2022/09/15 05:09:06;;;;;;;;;;;28.10;91.40;;;;;;5064478;28;19924;-62
2022/09/15 05:11:33;;;;;;;;;;;28.10;91.40;;;;;;5064614;28;19975;-60
2022/09/15 05:13:59;;;;;;;;;;;28.10;91.50;;;;;;5064072;28;19935;-60
2022/09/15 05:16:26;;;;;;;;;;;28.10;91.60;;;;;;5064636;28;19958;-65
2022/09/15 05:18:54;;;;;;;;;;;28.00;91.50;;;;;;5064187;28;20104;-63
2022/09/15 05:21:22;;;;;;;;;;;28.00;91.50;;;;;;5064461;28;19908;-62
2022/09/15 05:23:49;;;;;;;;;;;28.00;91.50;;;;;;5064156;28;20116;-62
2022/09/15 05:26:16;;;;;;;;;;;28.00;91.60;;;;;;5064149;28;20157;-61
2022/09/15 05:28:42;;;;;;;;;;;27.90;91.40;;;;;;5064244;28;19900;-61
2022/09/15 05:31:13;;;;;;;;;;;27.90;91.40;;;;;;5064183;28;19913;-61
2022/09/15 05:33:39;;;;;;;;;;;27.90;91.30;;;;;;5064226;28;19952;-61
2022/09/15 05:36:06;;;;;;;;;;;27.90;91.30;;;;;;5063845;28;20074;-62
2022/09/15 05:38:32;;;;;;;;;;;27.90;91.30;;;;;;5063899;28;19909;-62
2022/09/15 05:41:04;;;;;;;;;;;27.80;91.60;;;;;;5064295;28;19911;-61
2022/09/15 05:43:31;;;;;;;;;;;27.80;91.40;;;;;;5063902;28;19958;-61
2022/09/15 05:45:57;;;;;;;;;;;27.80;91.40;;;;;;5063946;28;19932;-61
2022/09/15 05:48:24;;;;;;;;;;;27.80;91.40;;;;;;5064125;28;19946;-62
2022/09/15 05:50:51;;;;;;;;;;;27.80;91.70;;;;;;5063768;28;19920;-61
2022/09/15 05:53:17;;;;;;;;;;;27.80;91.40;;;;;;5063928;28;19904;-61
2022/09/15 05:55:44;;;;;;;;;;;27.80;91.50;;;;;;5063846;28;20164;-61
2022/09/15 05:58:10;;;;;;;;;;;27.70;91.50;;;;;;5064803;28;19912;-62
2022/09/15 06:00:37;;;;;;;;;;;27.70;91.50;;;;;;5067215;28;19913;-62
2022/09/15 06:03:03;;;;;;;;;;;27.70;91.50;;;;;;5070632;28;19908;-62
2022/09/15 06:05:29;;;;;;;;;;;27.70;91.60;;;;;;5083833;28;20096;-61
2022/09/15 06:07:55;;;;;;;;;;;27.70;91.60;;;;;;5083799;28;19936;-60
2022/09/15 06:10:23;;;;;;;;;;;27.70;91.60;;;;;;5084037;28;19900;-62
2022/09/15 06:12:52;;;;;;;;;;;27.70;91.50;;;;;;5084221;28;19915;-61
2022/09/15 06:15:21;;;;;;;;;;;27.70;91.40;;;;;;5083712;28;19904;-61
2022/09/15 06:17:47;;;;;;;;;;;27.60;91.50;;;;;;5084393;28;19916;-61
2022/09/15 06:20:14;;;;;;;;;;;27.60;91.50;;;;;;5070547;28;20097;-62
2022/09/15 06:22:40;;;;;;;;;;;27.60;91.50;;;;;;5064132;28;20219;-62
2022/09/15 06:25:06;;;;;;;;;;;27.60;91.40;;;;;;5063487;28;19912;-62
2022/09/15 06:27:32;;;;;;;;;;;27.60;91.40;;;;;;5063505;28;20189;-62
2022/09/15 06:29:59;;;;;;;;;;;27.60;91.40;;;;;;5063511;28;19976;-61
2022/09/15 06:32:25;;;;;;;;;;;27.60;91.40;;;;;;5077842;28;19908;-61
2022/09/15 06:34:51;;;;;;;;;;;27.60;91.50;;;;;;5083716;28;19908;-61
2022/09/15 06:37:17;;;;;;;;;;;27.50;91.50;;;;;;5083562;28;19951;-63
2022/09/15 06:39:44;;;;;;;;;;;27.50;91.40;;;;;;5083552;28;19900;-64
2022/09/15 06:42:10;;;;;;;;;;;27.50;91.30;;;;;;5083995;28;19912;-62
2022/09/15 06:44:36;;;;;;;;;;;27.50;91.20;;;;;;5083136;28;19909;-64
2022/09/15 06:47:03;;;;;;;;;;;27.50;91.30;;;;;;5083865;28;19976;-62
2022/09/15 06:49:30;;;;;;;;;;;27.60;91.20;;;;;;5086547;28;19904;-61
2022/09/15 06:51:56;;;;;;;;;;;27.50;91.20;;;;;;5087186;28;19916;-64
2022/09/15 06:54:22;;;;;;;;;;;27.50;91.20;;;;;;5081072;28;19939;-62
2022/09/15 06:56:48;;;;;;;;;;;27.50;91.20;;;;;;5067104;28;19984;-62
2022/09/15 06:59:15;;;;;;;;;;;27.50;91.20;;;;;;5066758;28;19908;-62
2022/09/15 07:01:42;;;;;;;;;;;27.50;91.20;;;;;;5072609;28;20207;-63
2022/09/15 07:04:08;;;;;;;;;;;27.40;91.20;;;;;;5086805;28;19904;-61
2022/09/15 07:06:36;;;;;;;;;;;27.50;91.20;;;;;;5086591;28;19923;-63
2022/09/15 07:09:02;;;;;;;;;;;27.40;91.10;;;;;;5086608;28;19931;-62
2022/09/15 07:11:28;;;;;;;;;;;27.50;91.10;;;;;;5086686;28;19912;-61
2022/09/15 07:13:55;;;;;;;;;;;27.40;91.10;;;;;;5068770;28;19904;-62
2022/09/15 07:16:21;;;;;;;;;;;27.40;91.10;;;;;;5086584;28;19908;-61
2022/09/15 07:18:48;;;;;;;;;;;27.40;91.20;;;;;;5086425;28;20211;-61
2022/09/15 07:21:15;;;;;;;;;;;27.40;91.20;;;;;;5086346;28;20184;-61
2022/09/15 07:23:41;;;;;;;;;;;27.40;91.10;;;;;;5086016;28;19927;-61
2022/09/15 07:26:09;;;;;;;;;;;27.30;91.10;;;;;;5086223;28;20198;-61
2022/09/15 07:28:36;;;;;;;;;;;27.30;91.00;;;;;;5086223;28;19911;-62
2022/09/15 07:31:03;;;;;;;;;;;27.30;90.90;;;;;;5086224;28;20177;-64
2022/09/15 07:33:29;;;;;;;;;;;27.30;90.90;;;;;;5086227;28;19962;-64
2022/09/15 07:35:55;;;;;;;;;;;27.30;90.80;;;;;;5086315;28;19915;-61
2022/09/15 07:38:21;;;;;;;;;;;27.30;90.80;;;;;;5086239;28;19926;-62
2022/09/15 07:40:48;;;;;;;;;;;27.30;90.70;;;;;;5086182;28;19904;-62
2022/09/15 07:43:14;;;;;;;;;;;27.30;90.70;;;;;;5086188;28;19908;-62
2022/09/15 07:45:41;;;;;;;;;;;27.30;90.70;;;;;;5085437;28;20139;-62
2022/09/15 07:48:08;;;;;;;;;;;27.30;90.70;;;;;;5085744;28;19940;-62
2022/09/15 07:50:34;;;;;;;;;;;27.30;90.70;;;;;;5085850;28;19939;-61
2022/09/15 07:53:00;;;;;;;;;;;27.30;90.60;;;;;;5085753;28;19904;-63
2022/09/15 07:55:29;;;;;;;;;;;27.20;90.60;;;;;;5085721;28;19901;-61
2022/09/15 07:58:03;;;;;;;;;;;27.20;90.60;;;;;;5077617;28;20001;-61
2022/09/15 08:00:30;;;;;;;;;;;27.20;90.60;;;;;;5085179;28;19979;-60
2022/09/15 08:02:56;;;;;;;;;;;27.20;90.70;;;;;;5085293;28;19971;-62
2022/09/15 08:05:27;;;;;;;;;;;27.20;90.60;;;;;;5085425;28;19939;-62
2022/09/15 08:07:57;;;;;;;;;;;27.20;90.70;;;;;;5085236;28;19905;-61
2022/09/15 08:10:24;;;;;;;;;;;27.20;90.80;;;;;;5085284;28;20193;-62
2022/09/15 08:12:51;;;;;;;;;;;27.20;90.90;;;;;;5085866;28;20078;-62
2022/09/15 08:15:17;;;;;;;;;;;27.20;91.00;;;;;;5085277;28;19946;-62
2022/09/15 08:17:43;;;;;;;;;;;27.10;91.00;;;;;;5085667;28;20185;-62
2022/09/15 08:20:10;;;;;;;;;;;27.20;91.00;;;;;;5085164;28;19908;-62
2022/09/15 08:22:36;;;;;;;;;;;27.20;91.10;;;;;;5085363;28;19975;-62
2022/09/15 08:25:03;;;;;;;;;;;27.10;91.10;;;;;;5084940;28;20215;-62
2022/09/15 08:27:29;;;;;;;;;;;27.10;91.20;;;;;;5085449;28;20026;-62
2022/09/15 08:29:55;;;;;;;;;;;27.10;91.20;;;;;;5085097;28;20222;-65
2022/09/15 08:32:21;;;;;;;;;;;27.10;91.30;;;;;;5085516;28;19905;-61
2022/09/15 08:34:47;;;;;;;;;;;27.10;91.30;;;;;;5085049;28;20127;-62
2022/09/15 08:37:14;;;;;;;;;;;27.00;91.40;;;;;;5085181;28;19908;-62
2022/09/15 08:39:41;;;;;;;;;;;27.00;91.40;;;;;;5084933;28;19912;-61
2022/09/15 08:42:13;;;;;;;;;;;27.00;91.50;;;;;;5085389;28;19908;-61
2022/09/15 08:44:42;;;;;;;;;;;27.00;91.60;;;;;;5084575;28;20073;-61
2022/09/15 08:47:26;;;;;;;;;;;27.00;91.60;;;;;;5085127;28;19950;-62
2022/09/15 08:49:52;;;;;;;;;;;26.90;91.50;;;;;;5084565;28;19900;-61
2022/09/15 08:52:25;;;;;;;;;;;26.90;91.50;;;;;;5085204;28;20195;-61
2022/09/15 08:54:52;;;;;;;;;;;26.90;91.50;;;;;;5084676;28;20093;-61
2022/09/15 08:57:20;;;;;;;;;;;26.90;91.50;;;;;;5085004;28;19909;-62
2022/09/15 08:59:47;;;;;;;;;;;26.90;91.60;;;;;;5084759;28;19900;-61
2022/09/15 09:02:28;;;;;;;;;;;26.90;91.60;;;;;;5084975;28;19971;-61
2022/09/15 09:04:57;;;;;;;;;;;26.90;91.80;;;;;;5084439;28;19953;-62
2022/09/15 09:07:35;;;;;;;;;;;26.90;91.80;;;;;;5084763;28;19924;-61
2022/09/15 09:10:07;;;;;;;;;;;26.90;91.80;;;;;;5084458;28;19904;-64
2022/09/15 09:13:06;;;;;;;;;;;26.90;91.90;;;;;;5084622;28;19908;-61
2022/09/15 09:15:44;;;;;;;;;;;26.90;92.00;;;;;;5029427;28;19905;-64
2022/09/15 09:18:13;;;;;;;;;;;26.90;92.00;;;;;;5084402;28;19983;-61
2022/09/15 09:21:03;;;;;;;;;;;26.90;92.00;;;;;;5084376;28;19971;-61
2022/09/15 09:23:32;;;;;;;;;;;26.90;92.10;;;;;;5084148;28;19987;-62
2022/09/15 09:26:00;;;;;;;;;;;26.80;92.10;;;;;;5084307;28;20188;-62
2022/09/15 09:28:48;;;;;;;;;;;26.80;92.10;;;;;;5084249;28;20180;-62
2022/09/15 09:31:17;;;;;;;;;;;26.80;92.10;;;;;;5084641;28;19908;-62
2022/09/15 09:33:48;;;;;;;;;;;26.80;92.10;;;;;;5084296;28;20100;-61
2022/09/15 09:36:14;;;;;;;;;;;26.80;92.10;;;;;;5084304;28;19908;-62
2022/09/15 09:38:42;;;;;;;;;;;26.80;92.10;;;;;;5084328;28;19905;-63
2022/09/15 09:41:11;;;;;;;;;;;26.80;92.20;;;;;;5084320;28;19904;-61
2022/09/15 09:43:37;;;;;;;;;;;26.70;92.20;;;;;;5083962;28;19911;-62
2022/09/15 09:46:15;;;;;;;;;;;26.70;92.20;;;;;;5084288;28;19916;-63
2022/09/15 09:48:43;;;;;;;;;;;26.70;92.20;;;;;;5084040;28;19951;-61
2022/09/15 09:51:27;;;;;;;;;;;26.70;92.20;;;;;;5084145;28;20132;-61
2022/09/15 09:53:53;;;;;;;;;;;26.60;92.20;;;;;;5084128;28;19904;-63
2022/09/15 09:56:24;;;;;;;;;;;26.60;92.20;;;;;;5084162;28;19908;-62
2022/09/15 09:58:51;;;;;;;;;;;26.60;92.20;;;;;;5083963;28;19900;-65
2022/09/15 10:01:18;;;;;;;;;;;26.60;92.20;;;;;;5083998;28;19909;-61
2022/09/15 10:03:45;;;;;;;;;;;26.60;92.20;;;;;;5083843;28;19908;-61
2022/09/15 10:06:21;;;;;;;;;;;26.60;92.20;;;;;;5084001;28;19909;-61
2022/09/15 10:08:55;;;;;;;;;;;26.60;92.20;;;;;;5083827;28;19901;-61
2022/09/15 10:11:21;;;;;;;;;;;26.60;92.20;;;;;;5083932;28;19951;-63
2022/09/15 10:13:55;;;;;;;;;;;26.60;92.20;;;;;;5082764;28;19901;-62
2022/09/15 10:16:21;;;;;;;;;;;26.60;92.10;;;;;;5084022;28;19943;-65
2022/09/15 10:18:49;;;;;;;;;;;26.60;92.10;;;;;;5084034;28;20180;-60
2022/09/15 10:21:21;;;;;;;;;;;26.60;92.10;;;;;;5084010;28;20084;-62
2022/09/15 10:23:47;;;;;;;;;;;26.60;92.10;;;;;;5085775;28;19912;-66
2022/09/15 10:26:21;;;;;;;;;;;26.50;92.00;;;;;;5087666;28;20115;-65
2022/09/15 10:29:20;;;;;;;;;;;26.50;92.10;;;;;;5087294;28;19911;-61
2022/09/15 10:31:46;;;;;;;;;;;26.50;92.00;;;;;;5032858;28;19915;-62
2022/09/15 10:34:29;;;;;;;;;;;26.50;92.10;;;;;;5087252;28;19939;-62
2022/09/15 10:37:18;;;;;;;;;;;26.50;92.10;;;;;;5087461;28;20193;-62
2022/09/15 10:39:51;;;;;;;;;;;26.50;92.10;;;;;;5087607;28;19904;-62
2022/09/15 10:42:17;;;;;;;;;;;26.40;92.10;;;;;;5087899;28;20295;-62
2022/09/15 10:44:49;;;;;;;;;;;26.40;92.10;;;;;;5087291;28;19908;-63
2022/09/15 10:47:33;;;;;;;;;;;26.40;92.10;;;;;;5087676;28;19904;-63
2022/09/15 10:50:21;;;;;;;;;;;26.40;92.10;;;;;;5086983;28;19911;-62
2022/09/15 10:52:50;;;;;;;;;;;26.40;92.10;;;;;;5087829;28;19908;-62
2022/09/15 10:55:31;;;;;;;;;;;26.40;92.10;;;;;;5086956;28;19904;-60
2022/09/15 10:58:23;;;;;;;;;;;26.30;92.10;;;;;;5087121;28;20038;-61
2022/09/15 11:00:52;;;;;;;;;;;26.30;92.00;;;;;;5047189;28;20239;-60
2022/09/15 11:03:39;;;;;;;;;;;26.30;91.90;;;;;;5086804;28;19911;-60
2022/09/15 11:06:08;;;;;;;;;;;26.30;91.80;;;;;;5086653;28;20263;-62
2022/09/15 11:08:55;;;;;;;;;;;26.30;91.80;;;;;;5086825;28;19900;-60
2022/09/15 11:11:27;;;;;;;;;;;26.30;91.80;;;;;;5069931;28;19915;-60
2022/09/15 11:13:56;;;;;;;;;;;26.30;91.70;;;;;;5087608;28;19951;-60
2022/09/15 11:16:51;;;;;;;;;;;26.30;91.70;;;;;;5086790;28;19916;-62
2022/09/15 11:19:36;;;;;;;;;;;26.30;91.70;;;;;;5081921;28;20130;-61
2022/09/15 11:22:12;;;;;;;;;;;26.30;91.70;;;;;;5086505;28;19979;-61
2022/09/15 11:24:38;;;;;;;;;;;26.30;91.80;;;;;;5086136;28;19912;-61
2022/09/15 11:27:12;;;;;;;;;;;26.30;91.90;;;;;;5086721;28;19908;-61
2022/09/15 11:29:47;;;;;;;;;;;26.40;92.10;;;;;;5085897;28;19900;-59
2022/09/15 11:32:16;;;;;;;;;;;26.40;92.20;;;;;;5077614;28;19908;-63
2022/09/15 11:34:48;;;;;;;;;;;26.40;92.20;;;;;;5065923;28;19912;-61
2022/09/15 11:37:26;;;;;;;;;;;26.40;92.00;;;;;;5066609;28;19979;-62
2022/09/15 11:39:56;;;;;;;;;;;26.50;91.90;;;;;;5066177;28;20189;-61
2022/09/15 11:42:22;;;;;;;;;;;26.50;91.90;;;;;;5066462;28;19940;-59
2022/09/15 11:44:49;;;;;;;;;;;26.50;91.90;;;;;;5066170;28;19916;-62
2022/09/15 11:47:32;;;;;;;;;;;26.60;92.00;;;;;;5065628;28;19912;-62
2022/09/15 11:50:10;;;;;;;;;;;26.60;92.00;;;;;;5065783;28;19904;-62
2022/09/15 11:52:46;;;;;;;;;;;26.60;91.90;;;;;;5066422;28;19951;-63
2022/09/15 11:55:24;;;;;;;;;;;26.60;91.70;;;;;;5065798;28;20152;-61
2022/09/15 11:57:53;;;;;;;;;;;26.60;91.60;;;;;;5066540;28;19968;-64
2022/09/15 12:00:20;;;;;;;;;;;26.70;91.50;;;;;;5065776;28;19911;-59
2022/09/15 12:03:04;;;;;;;;;;;26.80;91.50;;;;;;5066304;28;19940;-61
2022/09/15 12:05:48;;;;;;;;;;;26.80;91.40;;;;;;5065639;28;19943;-62
2022/09/15 12:08:18;;;;;;;;;;;26.80;91.30;;;;;;5065516;28;19904;-62
2022/09/15 12:10:48;;;;;;;;;;;26.90;91.30;;;;;;5065682;28;20096;-61
2022/09/15 12:13:18;;;;;;;;;;;26.90;91.20;;;;;;5065704;28;19904;-61
2022/09/15 12:15:45;;;;;;;;;;;27.00;91.10;;;;;;5065489;28;19904;-62
2022/09/15 12:18:18;;;;;;;;;;;27.00;91.10;;;;;;5075614;28;19911;-62
2022/09/15 12:20:59;;;;;;;;;;;27.00;90.90;;;;;;5067543;28;19905;-60
2022/09/15 12:23:31;;;;;;;;;;;27.10;90.90;;;;;;5077530;28;19948;-59
2022/09/15 12:26:04;;;;;;;;;;;27.10;90.90;;;;;;5083327;28;19959;-59
2022/09/15 12:28:37;;;;;;;;;;;27.20;90.80;;;;;;5085003;28;19942;-60
2022/09/15 12:31:23;;;;;;;;;;;27.20;90.70;;;;;;5081821;28;19917;-59
2022/09/15 12:34:09;;;;;;;;;;;27.30;90.80;;;;;;5079256;28;19943;-59
2022/09/15 12:36:37;;;;;;;;;;;27.30;90.70;;;;;;5085306;28;19943;-61
2022/09/15 12:39:24;;;;;;;;;;;27.30;90.80;;;;;;5084954;28;19979;-58
2022/09/15 12:41:55;;;;;;;;;;;27.40;90.80;;;;;;5084087;28;19908;-55
2022/09/15 12:44:35;;;;;;;;;;;27.40;90.70;;;;;;5084879;28;20193;-59
2022/09/15 12:47:04;;;;;;;;;;;27.50;90.60;;;;;;5083122;28;20187;-63
2022/09/15 12:49:33;;;;;;;;;;;27.50;90.50;;;;;;5083830;28;19904;-60
2022/09/15 12:52:00;;;;;;;;;;;27.50;90.60;;;;;;5083087;28;19999;-59
2022/09/15 12:54:28;;;;;;;;;;;27.60;90.60;;;;;;5082694;28;19995;-60
2022/09/15 12:56:56;;;;;;;;;;;27.60;90.60;;;;;;5082821;28;19909;-60
2022/09/15 12:59:26;;;;;;;;;;;27.60;90.60;;;;;;5082827;28;19905;-60
2022/09/15 13:01:54;;;;;;;;;;;27.60;90.50;;;;;;5083320;28;19908;-59
2022/09/15 13:04:38;;;;;;;;;;;27.70;90.60;;;;;;5083774;28;19908;-60
2022/09/15 13:07:27;;;;;;;;;;;27.70;90.60;;;;;;5084180;28;19908;-60
2022/09/15 13:10:15;;;;;;;;;;;27.70;90.50;;;;;;5083638;28;19912;-60
2022/09/15 13:12:46;;;;;;;;;;;27.80;90.50;;;;;;5083987;28;19908;-60
2022/09/15 13:15:17;;;;;;;;;;;27.70;90.50;;;;;;5084324;28;20188;-59
2022/09/15 13:17:44;;;;;;;;;;;27.80;90.60;;;;;;5084861;28;20088;-59
2022/09/15 13:20:15;;;;;;;;;;;27.80;90.40;;;;;;5084365;28;19904;-59
2022/09/15 13:22:44;;;;;;;;;;;27.80;90.40;;;;;;5084678;28;19970;-59
2022/09/15 13:25:12;;;;;;;;;;;27.80;90.40;;;;;;5084281;28;19920;-62
2022/09/15 13:27:44;;;;;;;;;;;27.80;90.40;;;;;;5084578;28;19908;-59
2022/09/15 13:30:28;;;;;;;;;;;27.90;90.30;;;;;;5084522;28;19904;-59
2022/09/15 13:33:00;;;;;;;;;;;27.90;90.30;;;;;;5084619;28;19912;-58
2022/09/15 13:35:26;;;;;;;;;;;27.90;90.20;;;;;;5084162;28;19912;-59
2022/09/15 13:38:11;;;;;;;;;;;27.90;90.20;;;;;;5084658;28;19909;-60
2022/09/15 13:40:56;;;;;;;;;;;27.90;90.20;;;;;;5084267;28;19908;-60
2022/09/15 13:43:34;;;;;;;;;;;27.90;90.20;;;;;;5083965;28;19904;-59
2022/09/15 13:46:23;;;;;;;;;;;28.00;90.10;;;;;;5083950;28;19912;-60
2022/09/15 13:49:09;;;;;;;;;;;28.00;90.20;;;;;;5046454;28;19942;-59
2022/09/15 13:51:37;;;;;;;;;;;28.00;90.30;;;;;;5083767;28;19944;-61
2022/09/15 13:54:14;;;;;;;;;;;28.00;90.30;;;;;;5084225;28;19908;-60
2022/09/15 13:56:40;;;;;;;;;;;28.00;90.10;;;;;;5084434;28;19951;-60
2022/09/15 13:59:15;;;;;;;;;;;28.10;90.50;;;;;;5088046;28;19911;-60
2022/09/15 14:01:43;;;;;;;;;;;28.10;90.10;;;;;;5088149;28;19915;-60
2022/09/15 14:04:29;;;;;;;;;;;28.20;90.10;;;;;;5087873;28;19915;-60
2022/09/15 14:06:57;;;;;;;;;;;28.10;90.10;;;;;;5087913;28;19908;-58
2022/09/15 14:09:26;;;;;;;;;;;28.20;90.10;;;;;;5087834;28;19936;-60
2022/09/15 14:11:54;;;;;;;;;;;28.20;89.50;;;;;;5087961;28;19908;-59
2022/09/15 14:14:33;;;;;;;;;;;28.20;89.30;;;;;;5087677;28;19900;-60
2022/09/15 14:16:59;;;;;;;;;;;28.20;89.60;;;;;;5088102;28;19916;-59
2022/09/15 14:19:32;;;;;;;;;;;28.20;89.60;;;;;;5087582;28;20188;-60
2022/09/15 14:22:19;;;;;;;;;;;28.30;89.50;;;;;;5087932;28;20123;-62
2022/09/15 14:24:46;;;;;;;;;;;28.30;88.80;;;;;;5073381;28;20213;-60
2022/09/15 14:27:19;;;;;;;;;;;28.30;88.30;;;;;;5087779;28;19946;-60